createdAt,value
2018-04-17T00:02:08.713Z,8.97
2018-04-17T00:04:36.443Z,9.40
2018-04-17T00:07:04.041Z,7.17
2018-04-17T00:09:31.742Z,8.83
2018-04-17T00:11:59.373Z,8.60
2018-04-17T00:14:27.024Z,8.97
2018-04-17T00:16:54.691Z,5.97
2018-04-17T00:19:23.096Z,5.57
2018-04-17T00:21:50.708Z,6.43
2018-04-17T00:24:18.302Z,5.20
2018-04-17T00:26:46.866Z,4.47
2018-04-17T00:29:14.482Z,5.27
2018-04-17T00:31:42.084Z,4.77
2018-04-17T00:34:09.683Z,5.27
2018-04-17T00:36:37.334Z,5.57
2018-04-17T00:39:05.001Z,7.17
2018-04-17T00:41:33.567Z,5.37
2018-04-17T00:44:01.165Z,8.03
2018-04-17T00:46:29.770Z,6.73
2018-04-17T00:48:57.383Z,5.40
2018-04-17T00:51:24.989Z,5.50
2018-04-17T00:53:53.533Z,7.10
2018-04-17T00:56:21.128Z,6.03
2018-04-17T00:58:49.672Z,8.80
2018-04-17T01:01:17.346Z,6.83
2018-04-17T01:03:45.897Z,7.10
2018-04-17T01:06:14.320Z,7.97
2018-04-17T01:08:41.964Z,7.93
2018-04-17T01:11:09.642Z,10.57
2018-04-17T01:13:38.180Z,9.87
2018-04-17T01:16:06.343Z,9.00
2018-04-17T01:18:34.019Z,6.40
2018-04-17T01:21:01.588Z,7.37
2018-04-17T01:23:30.113Z,8.17
2018-04-17T01:25:57.850Z,10.33
2018-04-17T01:28:25.480Z,9.63
2018-04-17T01:30:53.072Z,8.67
2018-04-17T01:33:20.658Z,8.93
2018-04-17T01:35:49.142Z,9.90
2018-04-17T01:38:16.744Z,10.33
2018-04-17T01:40:44.410Z,9.27
2018-04-17T01:43:11.973Z,10.53
2018-04-17T01:45:39.597Z,13.73
2018-04-17T01:48:07.224Z,10.27
2018-04-17T01:50:34.817Z,10.13
2018-04-17T01:53:02.410Z,10.37
2018-04-17T01:55:30.641Z,11.10
2018-04-17T01:57:58.258Z,12.00
2018-04-17T02:00:25.850Z,15.30
2018-04-17T02:02:53.490Z,12.80
2018-04-17T02:05:21.090Z,11.73
2018-04-17T02:07:48.669Z,10.83
2018-04-17T02:10:16.266Z,10.67
2018-04-17T02:12:44.790Z,13.17
2018-04-17T02:15:13.136Z,12.13
2018-04-17T02:17:40.731Z,13.03
2018-04-17T02:20:09.106Z,11.30
2018-04-17T02:22:36.809Z,11.73
2018-04-17T02:25:04.453Z,10.47
2018-04-17T02:27:32.823Z,11.30
2018-04-17T02:30:00.461Z,16.20
2018-04-17T02:32:28.153Z,25.20
2018-04-17T02:34:57.013Z,31.83
2018-04-17T02:37:25.555Z,14.07
2018-04-17T02:39:53.204Z,10.90
2018-04-17T02:42:20.833Z,9.87
2018-04-17T02:44:48.426Z,14.53
2018-04-17T02:47:16.026Z,10.27
2018-04-17T02:49:43.660Z,13.63
2018-04-17T02:52:11.272Z,14.67
2018-04-17T02:54:38.918Z,11.37
2018-04-17T02:57:07.382Z,9.97
2018-04-17T02:59:35.753Z,9.57
2018-04-17T03:02:03.353Z,15.07
2018-04-17T03:04:31.735Z,9.37
2018-04-17T03:07:00.104Z,9.80
2018-04-17T03:09:28.540Z,8.97
2018-04-17T03:11:57.079Z,9.13
2018-04-17T03:14:24.734Z,10.20
2018-04-17T03:16:53.315Z,11.97
2018-04-17T03:19:20.938Z,9.63
2018-04-17T03:21:49.454Z,12.10
2018-04-17T03:24:18.096Z,14.03
2018-04-17T03:27:05.034Z,15.10
2018-04-17T03:29:32.678Z,10.67
2018-04-17T03:32:00.396Z,11.30
2018-04-17T03:37:08.836Z,8.40
2018-04-17T03:39:37.383Z,7.90
2018-04-17T03:42:05.114Z,8.30
2018-04-17T03:44:32.727Z,10.50
2018-04-17T03:47:00.322Z,9.97
2018-04-17T03:49:46.685Z,5.70
2018-04-17T03:54:53.480Z,7.60
2018-04-17T03:57:21.135Z,6.60
2018-04-17T03:59:49.719Z,7.50
2018-04-17T04:02:17.383Z,9.43
2018-04-17T04:04:45.034Z,7.40
2018-04-17T04:07:12.608Z,7.17
2018-04-17T04:09:40.306Z,10.80
2018-04-17T04:12:07.894Z,9.47
2018-04-17T04:14:35.475Z,9.93
2018-04-17T04:17:15.760Z,9.40
2018-04-17T04:19:56.157Z,8.60
2018-04-17T04:22:35.807Z,8.80
2018-04-17T04:25:31.755Z,10.50
2018-04-17T04:27:59.453Z,5.47
2018-04-17T04:30:27.073Z,8.77
2018-04-17T04:32:55.460Z,12.40
2018-04-17T04:35:23.880Z,8.80
2018-04-17T04:37:51.452Z,9.37
2018-04-17T04:40:19.066Z,11.47
2018-04-17T04:42:47.524Z,5.67
2018-04-17T04:45:15.215Z,6.17
2018-04-17T04:47:43.580Z,4.97
2018-04-17T04:50:12.142Z,7.57
2018-04-17T04:52:39.831Z,8.40
2018-04-17T04:55:07.430Z,10.23
2018-04-17T04:57:35.880Z,8.37
2018-04-17T05:00:03.561Z,11.50
2018-04-17T05:02:31.156Z,10.90
2018-04-17T05:04:59.539Z,19.30
2018-04-17T05:07:28.065Z,10.83
2018-04-17T05:09:56.174Z,9.10
2018-04-17T05:12:23.850Z,6.67
2018-04-17T05:14:52.442Z,10.50
2018-04-17T05:17:20.708Z,6.83
2018-04-17T05:19:48.305Z,7.27
2018-04-17T05:22:17.840Z,10.30
2018-04-17T05:24:46.305Z,8.40
2018-04-17T05:27:13.824Z,8.73
2018-04-17T05:29:41.341Z,11.90
2018-04-17T05:32:09.863Z,7.67
2018-04-17T05:34:38.377Z,9.63
2018-04-17T05:37:06.369Z,8.53
2018-04-17T05:39:34.636Z,8.67
2018-04-17T05:42:02.242Z,9.47
2018-04-17T05:44:29.750Z,10.00
2018-04-17T05:47:15.915Z,9.27
2018-04-17T05:49:43.517Z,10.33
2018-04-17T05:52:11.060Z,9.17
2018-04-17T05:54:39.543Z,11.03
2018-04-17T05:57:07.049Z,14.83
2018-04-17T05:59:37.425Z,11.37
2018-04-17T06:02:05.030Z,11.33
2018-04-17T06:04:33.331Z,11.37
2018-04-17T06:07:02.574Z,16.80
2018-04-17T06:09:31.065Z,11.50
2018-04-17T06:11:58.585Z,8.57
2018-04-17T06:14:26.891Z,9.67
2018-04-17T06:16:54.433Z,12.50
2018-04-17T06:19:21.933Z,7.57
2018-04-17T06:21:50.480Z,10.37
2018-04-17T06:24:18.081Z,11.53
2018-04-17T06:26:46.600Z,9.20
2018-04-17T06:29:14.252Z,9.20
2018-04-17T06:31:41.808Z,11.27
2018-04-17T06:34:09.367Z,12.37
2018-04-17T06:36:36.984Z,9.87
2018-04-17T06:39:04.631Z,10.07
2018-04-17T06:41:32.206Z,11.93
2018-04-17T06:44:01.440Z,10.53
2018-04-17T06:46:29.087Z,8.83
2018-04-17T06:49:16.244Z,9.60
2018-04-17T06:51:44.730Z,13.13
2018-04-17T06:54:12.288Z,12.97
2018-04-17T06:56:39.820Z,9.87
2018-04-17T06:59:08.165Z,18.20
2018-04-17T07:01:35.685Z,13.73
2018-04-17T07:04:03.403Z,13.00
2018-04-17T07:06:31.733Z,16.47
2018-04-17T07:08:59.228Z,14.03
2018-04-17T07:11:26.814Z,16.43
2018-04-17T07:13:55.312Z,17.67
2018-04-17T07:16:23.629Z,17.33
2018-04-17T07:18:52.113Z,19.30
2018-04-17T07:21:19.689Z,18.30
2018-04-17T07:23:48.275Z,16.57
2018-04-17T07:26:16.754Z,18.57
2018-04-17T07:28:44.267Z,15.93
2018-04-17T07:31:11.846Z,14.10
2018-04-17T07:33:40.324Z,18.60
2018-04-17T07:36:07.835Z,16.27
2018-04-17T07:38:35.353Z,17.63
2018-04-17T07:41:03.019Z,20.43
2018-04-17T07:43:30.545Z,18.10
2018-04-17T07:45:58.085Z,18.77
2018-04-17T07:48:38.334Z,20.53
2018-04-17T07:51:05.878Z,21.00
2018-04-17T07:53:34.152Z,21.33
2018-04-17T07:56:01.841Z,19.80
2018-04-17T07:58:29.382Z,21.13
2018-04-17T08:00:57.809Z,26.70
2018-04-17T08:03:26.307Z,19.17
2018-04-17T08:06:12.580Z,21.70
2018-04-17T08:08:40.217Z,21.13
2018-04-17T08:13:47.880Z,21.83
2018-04-17T08:16:16.388Z,23.30
2018-04-17T08:18:43.971Z,22.03
2018-04-17T08:21:11.596Z,24.27
2018-04-17T08:23:41.067Z,21.67
2018-04-17T08:26:09.377Z,22.90
2018-04-17T08:28:36.976Z,21.50
2018-04-17T08:31:04.509Z,24.43
2018-04-17T08:33:33.984Z,24.03
2018-04-17T08:36:02.312Z,22.80
2018-04-17T08:38:29.909Z,24.40
2018-04-17T08:41:02.395Z,24.03
2018-04-17T08:43:29.981Z,23.37
2018-04-17T08:45:58.255Z,22.00
2018-04-17T08:48:26.529Z,25.80
2018-04-17T08:50:54.439Z,25.57
2018-04-17T08:53:21.957Z,22.17
2018-04-17T08:55:51.491Z,22.87
2018-04-17T08:58:19.178Z,21.97
2018-04-17T09:00:48.656Z,27.07
2018-04-17T09:03:17.924Z,28.43
2018-04-17T09:05:46.478Z,26.47
2018-04-17T09:08:14.063Z,27.10
2018-04-17T09:10:42.511Z,20.20
2018-04-17T09:13:10.072Z,22.70
2018-04-17T09:15:39.449Z,20.83
2018-04-17T09:18:07.010Z,21.77
2018-04-17T09:20:34.650Z,22.67
2018-04-17T09:23:02.291Z,22.47
2018-04-17T09:25:29.819Z,24.07
2018-04-17T09:27:58.133Z,22.27
2018-04-17T09:30:25.709Z,21.73
2018-04-17T09:32:53.304Z,20.97
2018-04-17T09:35:22.882Z,19.77
2018-04-17T09:37:51.258Z,18.47
2018-04-17T09:40:18.764Z,15.73
2018-04-17T09:42:46.361Z,19.03
2018-04-17T09:45:14.847Z,16.63
2018-04-17T09:47:43.125Z,16.47
2018-04-17T09:50:11.441Z,15.57
2018-04-17T09:52:38.995Z,14.03
2018-04-17T09:55:06.538Z,17.63
2018-04-17T09:57:34.158Z,15.43
2018-04-17T10:00:01.785Z,15.47
2018-04-17T10:02:29.368Z,12.80
2018-04-17T10:04:56.938Z,12.37
2018-04-17T10:07:24.527Z,12.43
2018-04-17T10:09:52.143Z,9.10
2018-04-17T10:12:20.569Z,10.57
2018-04-17T10:14:48.995Z,12.43
2018-04-17T10:17:17.451Z,6.57
2018-04-17T10:19:45.117Z,6.40
2018-04-17T10:22:12.621Z,8.07
2018-04-17T10:24:40.898Z,6.83
2018-04-17T10:27:09.255Z,9.50
2018-04-17T10:29:36.836Z,6.33
2018-04-17T10:32:05.121Z,5.30
2018-04-17T10:34:34.365Z,6.47
2018-04-17T10:37:01.920Z,8.63
2018-04-17T10:39:29.458Z,9.83
2018-04-17T10:41:57.782Z,7.93
2018-04-17T10:44:25.341Z,8.17
2018-04-17T10:46:52.915Z,6.17
2018-04-17T10:49:20.469Z,6.53
2018-04-17T10:51:48.111Z,7.30
2018-04-17T10:54:35.235Z,7.07
2018-04-17T10:57:02.790Z,9.43
2018-04-17T10:59:31.236Z,6.47
2018-04-17T11:01:58.804Z,9.80
2018-04-17T11:04:26.356Z,8.23
2018-04-17T11:06:55.691Z,10.67
2018-04-17T11:09:23.261Z,8.90
2018-04-17T11:11:52.135Z,8.00
2018-04-17T11:14:19.679Z,9.03
2018-04-17T11:16:47.217Z,9.63
2018-04-17T11:19:15.770Z,13.57
2018-04-17T11:22:02.879Z,8.63
2018-04-17T11:24:31.163Z,8.33
2018-04-17T11:26:59.448Z,11.63
2018-04-17T11:29:27.753Z,8.20
2018-04-17T11:31:58.194Z,8.40
2018-04-17T11:34:25.803Z,12.10
2018-04-17T11:36:53.334Z,9.50
2018-04-17T11:39:20.889Z,8.77
2018-04-17T11:41:48.412Z,11.30
2018-04-17T11:44:15.919Z,8.63
2018-04-17T11:46:44.354Z,10.33
2018-04-17T11:49:12.614Z,9.53
2018-04-17T11:51:41.607Z,10.67
2018-04-17T11:54:09.103Z,13.50
2018-04-17T11:56:37.381Z,15.17
2018-04-17T11:59:04.936Z,9.57
2018-04-17T12:01:32.450Z,8.50
2018-04-17T12:04:00.006Z,8.87
2018-04-17T12:06:28.508Z,8.87
2018-04-17T12:08:56.022Z,9.23
2018-04-17T12:11:24.323Z,7.83
2018-04-17T12:13:53.537Z,10.90
2018-04-17T12:16:21.079Z,9.07
2018-04-17T12:18:49.466Z,10.47
2018-04-17T12:21:17.759Z,9.47
2018-04-17T12:23:46.222Z,6.30
2018-04-17T12:26:14.505Z,8.03
2018-04-17T12:28:42.841Z,10.07
2018-04-17T12:31:10.337Z,6.70
2018-04-17T12:33:37.881Z,4.90
2018-04-17T12:36:06.239Z,6.70
2018-04-17T12:38:34.663Z,6.57
2018-04-17T12:41:02.222Z,5.07
2018-04-17T12:43:31.816Z,6.83
2018-04-17T12:46:00.267Z,7.40
2018-04-17T12:48:28.730Z,6.30
2018-04-17T12:50:58.920Z,6.50
2018-04-17T12:53:27.362Z,9.93
2018-04-17T12:55:54.960Z,4.73
2018-04-17T12:58:23.299Z,6.70
2018-04-17T13:00:50.834Z,4.60
2018-04-17T13:03:18.395Z,7.27
2018-04-17T13:05:46.078Z,4.87
2018-04-17T13:08:13.655Z,5.70
2018-04-17T13:10:41.910Z,4.53
2018-04-17T13:13:10.425Z,4.57
2018-04-17T13:15:38.712Z,7.30
2018-04-17T13:18:06.305Z,4.20
2018-04-17T13:20:33.910Z,4.67
2018-04-17T13:26:00.689Z,4.40
2018-04-17T13:28:28.963Z,5.20
2018-04-17T13:30:58.158Z,3.77
2018-04-17T13:33:27.608Z,5.60
2018-04-17T13:35:56.071Z,5.30
2018-04-17T13:38:24.409Z,5.10
2018-04-17T13:40:52.863Z,4.60
2018-04-17T13:43:20.374Z,3.93
2018-04-17T13:45:50.865Z,4.27
2018-04-17T13:48:18.514Z,3.73
2018-04-17T13:50:46.016Z,4.03
2018-04-17T13:53:14.129Z,2.50
2018-04-17T13:55:42.420Z,2.60
2018-04-17T13:58:10.675Z,4.00
2018-04-17T14:00:38.160Z,4.23
2018-04-17T14:03:06.600Z,2.97
2018-04-17T14:05:34.211Z,2.87
2018-04-17T14:08:01.733Z,2.77
2018-04-17T14:10:30.205Z,2.53
2018-04-17T14:12:59.659Z,5.13
2018-04-17T14:15:27.915Z,3.77
2018-04-17T14:17:56.517Z,4.63
2018-04-17T14:20:24.030Z,1.93
2018-04-17T14:22:51.543Z,13.37
2018-04-17T14:25:19.178Z,2.50
2018-04-17T14:27:46.681Z,3.37
2018-04-17T14:30:15.107Z,2.50
2018-04-17T14:32:42.700Z,1.97
2018-04-17T14:35:10.268Z,2.80
2018-04-17T14:37:37.888Z,2.53
2018-04-17T14:40:05.735Z,3.30
2018-04-17T14:42:33.236Z,1.60
2018-04-17T14:45:00.750Z,3.90
2018-04-17T14:47:29.174Z,2.70
2018-04-17T14:49:56.782Z,5.27
2018-04-17T14:52:24.344Z,6.07
2018-04-17T14:54:51.926Z,4.60
2018-04-17T14:57:39.153Z,4.43
2018-04-17T15:02:48.088Z,1.93
2018-04-17T15:05:15.653Z,3.07
2018-04-17T15:07:43.204Z,2.30
2018-04-17T15:10:10.746Z,2.67
2018-04-17T15:12:40.294Z,2.20
2018-04-17T15:15:07.827Z,1.73
2018-04-17T15:17:36.269Z,3.90
2018-04-17T15:20:04.592Z,2.30
2018-04-17T15:22:32.100Z,3.13
2018-04-17T15:25:00.626Z,2.93
2018-04-17T15:27:29.150Z,2.43
2018-04-17T15:29:56.825Z,5.40
2018-04-17T15:32:26.040Z,4.63
2018-04-17T15:34:54.338Z,4.67
2018-04-17T15:37:23.587Z,4.87
2018-04-17T15:39:52.565Z,2.43
2018-04-17T15:42:20.217Z,4.13
2018-04-17T15:44:47.749Z,1.73
2018-04-17T15:47:16.018Z,4.57
2018-04-17T15:49:44.334Z,2.07
2018-04-17T15:52:12.768Z,6.13
2018-04-17T15:54:40.294Z,1.40
2018-04-17T15:57:07.920Z,3.50
2018-04-17T15:59:36.245Z,3.90
2018-04-17T16:02:03.771Z,2.00
2018-04-17T16:04:31.327Z,1.97
2018-04-17T16:06:58.879Z,3.03
2018-04-17T16:09:27.344Z,2.17
2018-04-17T16:11:54.904Z,2.07
2018-04-17T16:14:22.398Z,2.77
2018-04-17T16:16:51.917Z,4.03
2018-04-17T16:19:19.499Z,2.93
2018-04-17T16:21:47.777Z,3.70
2018-04-17T16:24:16.090Z,2.70
2018-04-17T16:26:45.597Z,3.07
2018-04-17T16:29:13.136Z,1.03
2018-04-17T16:31:41.409Z,3.30
2018-04-17T16:34:08.994Z,2.47
2018-04-17T16:36:36.549Z,5.03
2018-04-17T16:39:06.031Z,2.10
2018-04-17T16:41:33.590Z,4.20
2018-04-17T16:44:01.857Z,2.83
2018-04-17T16:46:30.122Z,3.00
2018-04-17T16:48:57.715Z,4.07
2018-04-17T16:51:26.170Z,5.57
2018-04-17T16:53:53.672Z,2.63
2018-04-17T16:56:21.224Z,1.93
2018-04-17T16:58:49.732Z,3.07
2018-04-17T17:01:18.957Z,3.00
2018-04-17T17:03:47.561Z,3.37
2018-04-17T17:06:15.075Z,2.67
2018-04-17T17:08:42.741Z,1.60
2018-04-17T17:11:12.293Z,2.27
2018-04-17T17:13:39.819Z,4.37
2018-04-17T17:16:07.314Z,4.53
2018-04-17T17:18:34.876Z,2.07
2018-04-17T17:21:03.170Z,2.27
2018-04-17T17:23:30.717Z,2.17
2018-04-17T17:25:59.230Z,4.30
2018-04-17T17:28:26.807Z,1.87
2018-04-17T17:30:54.314Z,4.17
2018-04-17T17:33:21.908Z,2.07
2018-04-17T17:35:49.413Z,4.10
2018-04-17T17:38:16.942Z,1.27
2018-04-17T17:40:44.555Z,3.20
2018-04-17T17:43:12.983Z,3.93
2018-04-17T17:45:40.637Z,2.23
2018-04-17T17:48:08.235Z,3.07
2018-04-17T17:50:35.737Z,3.50
2018-04-17T17:53:03.282Z,4.00
2018-04-17T17:55:30.812Z,2.80
2018-04-17T17:57:58.359Z,6.80
2018-04-17T18:00:25.954Z,4.40
2018-04-17T18:02:55.477Z,5.20
2018-04-17T18:05:23.027Z,3.83
2018-04-17T18:07:50.589Z,3.40
2018-04-17T18:10:18.303Z,2.53
2018-04-17T18:12:46.832Z,8.23
2018-04-17T18:15:14.342Z,6.90
2018-04-17T18:17:41.873Z,4.23
2018-04-17T18:20:09.367Z,5.13
2018-04-17T18:22:38.885Z,3.50
2018-04-17T18:25:25.091Z,3.57
2018-04-17T18:27:52.597Z,5.10
2018-04-17T18:30:20.201Z,3.40
2018-04-17T18:32:49.626Z,5.07
2018-04-17T18:35:19.075Z,3.23
2018-04-17T18:37:46.585Z,7.30
2018-04-17T18:40:14.227Z,3.80
2018-04-17T18:45:40.998Z,4.63
2018-04-17T18:48:08.514Z,5.47
2018-04-17T18:50:36.111Z,3.80
2018-04-17T18:53:03.909Z,2.00
2018-04-17T18:55:31.413Z,2.20
2018-04-17T18:57:58.931Z,7.27
2018-04-17T19:00:26.705Z,5.43
2018-04-17T19:02:54.207Z,2.60
2018-04-17T19:05:21.710Z,3.63
2018-04-17T19:07:49.289Z,4.10
2018-04-17T19:10:19.789Z,4.77
2018-04-17T19:12:48.287Z,4.67
2018-04-17T19:15:15.893Z,4.40
2018-04-17T19:17:44.218Z,5.07
2018-04-17T19:20:12.724Z,3.90
2018-04-17T19:22:41.989Z,2.70
2018-04-17T19:25:09.549Z,2.40
2018-04-17T19:27:37.157Z,5.40
2018-04-17T19:30:05.648Z,6.63
2018-04-17T19:32:33.341Z,4.13
2018-04-17T19:35:01.855Z,5.83
2018-04-17T19:37:29.493Z,3.60
2018-04-17T19:39:57.036Z,6.17
2018-04-17T19:42:26.467Z,4.57
2018-04-17T19:44:54.968Z,5.57
2018-04-17T19:47:22.660Z,4.63
2018-04-17T19:49:50.212Z,7.60
2018-04-17T19:52:17.759Z,3.27
2018-04-17T19:54:46.249Z,6.67
2018-04-17T19:57:14.523Z,4.90
2018-04-17T19:59:42.092Z,6.90
2018-04-17T20:02:09.694Z,4.60
2018-04-17T20:04:37.206Z,3.47
2018-04-17T20:07:04.741Z,5.47
2018-04-17T20:09:33.189Z,6.53
2018-04-17T20:12:01.802Z,5.53
2018-04-17T20:14:30.252Z,3.50
2018-04-17T20:17:15.756Z,4.87
2018-04-17T20:19:43.412Z,4.07
2018-04-17T20:22:11.642Z,3.27
2018-04-17T20:24:39.172Z,4.63
2018-04-17T20:27:06.768Z,4.83
2018-04-17T20:29:34.307Z,5.87
2018-04-17T20:32:01.877Z,3.40
2018-04-17T20:34:29.391Z,3.57
2018-04-17T20:36:58.541Z,7.73
2018-04-17T20:39:26.109Z,6.60
2018-04-17T20:41:53.668Z,3.53
2018-04-17T20:44:21.306Z,3.87
2018-04-17T20:46:49.989Z,4.63
2018-04-17T20:49:17.565Z,5.20
2018-04-17T20:51:45.079Z,5.03
2018-04-17T20:54:13.156Z,5.80
2018-04-17T20:56:40.668Z,3.87
2018-04-17T20:59:08.256Z,4.97
2018-04-17T21:01:36.656Z,4.77
2018-04-17T21:04:04.284Z,5.03
2018-04-17T21:06:32.955Z,6.30
2018-04-17T21:09:00.494Z,3.80
2018-04-17T21:11:30.112Z,4.43
2018-04-17T21:13:58.090Z,4.77
2018-04-17T21:16:25.652Z,6.70
2018-04-17T21:18:53.984Z,3.80
2018-04-17T21:21:21.576Z,5.80
2018-04-17T21:23:50.045Z,4.30
2018-04-17T21:26:17.646Z,3.53
2018-04-17T21:28:45.243Z,6.17
2018-04-17T21:31:13.703Z,4.23
2018-04-17T21:33:42.168Z,3.43
2018-04-17T21:36:09.686Z,7.03
2018-04-17T21:38:37.234Z,8.53
2018-04-17T21:41:05.703Z,5.90
2018-04-17T21:43:33.293Z,4.10
2018-04-17T21:46:00.801Z,3.67
2018-04-17T21:48:29.322Z,9.00
2018-04-17T21:50:56.885Z,5.33
2018-04-17T21:53:25.159Z,6.83
2018-04-17T21:55:52.727Z,7.10
2018-04-17T21:58:22.265Z,5.63
2018-04-17T22:00:49.814Z,8.23
2018-04-17T22:03:18.123Z,4.57
2018-04-17T22:05:45.694Z,5.63
2018-04-17T22:08:13.315Z,6.10
2018-04-17T22:10:40.951Z,10.53
2018-04-17T22:13:08.588Z,7.07
2018-04-17T22:15:36.209Z,6.67
2018-04-17T22:18:05.435Z,3.63
2018-04-17T22:20:33.015Z,6.60
2018-04-17T22:23:01.352Z,5.73
2018-04-17T22:25:28.880Z,5.10
2018-04-17T22:27:56.451Z,6.80
2018-04-17T22:30:24.878Z,5.10
2018-04-17T22:32:52.511Z,8.83
2018-04-17T22:35:21.021Z,3.97
2018-04-17T22:37:48.539Z,6.03
2018-04-17T22:40:16.052Z,5.87
2018-04-17T22:42:43.667Z,4.43
2018-04-17T22:45:11.332Z,3.50
2018-04-17T22:47:38.848Z,4.80
2018-04-17T22:50:07.310Z,4.30
2018-04-17T22:52:35.877Z,6.47
2018-04-17T22:55:03.423Z,3.87
2018-04-17T22:57:31.905Z,3.63
2018-04-17T23:00:00.363Z,5.07
2018-04-17T23:02:28.664Z,5.73
2018-04-17T23:04:56.261Z,3.50
2018-04-17T23:07:24.691Z,3.97
2018-04-17T23:09:52.977Z,7.07
2018-04-17T23:12:20.635Z,5.67
2018-04-17T23:14:48.255Z,4.73
2018-04-17T23:17:15.790Z,6.23
2018-04-17T23:19:44.972Z,4.13
2018-04-17T23:22:14.470Z,4.57
2018-04-17T23:24:41.981Z,3.37
2018-04-17T23:27:09.471Z,3.40
2018-04-17T23:29:37.075Z,4.40
2018-04-17T23:32:06.595Z,6.47
2018-04-17T23:34:34.871Z,7.97
2018-04-17T23:37:03.155Z,12.37
2018-04-17T23:39:31.444Z,8.77
2018-04-17T23:41:59.784Z,8.43
2018-04-17T23:44:28.268Z,4.00
2018-04-17T23:46:56.008Z,4.97
2018-04-17T23:49:23.530Z,5.50
2018-04-17T23:51:51.101Z,3.93
2018-04-17T23:54:19.385Z,5.90
2018-04-17T23:56:47.655Z,5.20
2018-04-17T23:59:15.191Z,3.40
